createdAt,value
2019-05-09T00:02:03.980Z,99373.92
2019-05-09T00:04:34.121Z,99372.17
2019-05-09T00:07:03.628Z,99371.32
2019-05-09T00:09:35.241Z,99371.41
2019-05-09T00:12:03.947Z,99375.78
2019-05-09T00:14:34.255Z,99373.59
2019-05-09T00:17:03.814Z,99377.08
2019-05-09T00:19:33.359Z,99375.42
2019-05-09T00:22:03.255Z,99374.64
2019-05-09T00:24:33.223Z,99373.50
2019-05-09T00:27:05.045Z,99380.50
2019-05-09T00:29:40.768Z,99374.91
2019-05-09T00:32:27.271Z,99378.80
2019-05-09T00:35:09.583Z,99377.13
2019-05-09T00:37:58.003Z,99375.56
2019-05-09T00:40:29.503Z,99368.30
2019-05-09T00:42:58.166Z,99369.12
2019-05-09T00:45:28.507Z,99362.53
2019-05-09T00:47:57.224Z,99362.53
2019-05-09T00:50:25.884Z,99360.31
2019-05-09T00:52:54.383Z,99357.76
2019-05-09T00:55:23.853Z,99360.94
2019-05-09T00:57:53.429Z,99360.90
2019-05-09T01:00:24.279Z,99363.97
2019-05-09T01:02:56.132Z,99365.23
2019-05-09T01:05:24.780Z,99361.41
2019-05-09T01:07:53.903Z,99352.85
2019-05-09T01:10:23.672Z,99358.95
2019-05-09T01:12:54.208Z,99358.13
2019-05-09T01:15:24.010Z,99353.42
2019-05-09T01:17:53.615Z,99353.83
2019-05-09T01:20:24.146Z,99352.95
2019-05-09T01:22:54.029Z,99357.25
2019-05-09T01:25:24.050Z,99348.66
2019-05-09T01:27:53.865Z,99350.45
2019-05-09T01:30:24.231Z,99343.66
2019-05-09T01:33:13.625Z,99343.22
2019-05-09T01:35:43.409Z,99339.95
2019-05-09T01:38:14.277Z,99341.55
2019-05-09T01:40:44.059Z,99339.39
2019-05-09T01:43:13.842Z,99342.48
2019-05-09T01:45:43.594Z,99341.28
2019-05-09T01:48:13.966Z,99343.92
2019-05-09T01:50:43.242Z,99343.92
2019-05-09T01:53:16.805Z,99345.77
2019-05-09T01:56:03.947Z,99348.48
2019-05-09T01:58:34.517Z,99350.14
2019-05-09T02:01:06.916Z,99358.77
2019-05-09T02:03:35.573Z,99358.37
2019-05-09T02:06:04.522Z,99362.33
2019-05-09T02:08:34.557Z,99358.47
2019-05-09T02:11:04.007Z,99355.83
2019-05-09T02:13:33.925Z,99359.69
2019-05-09T02:16:11.120Z,99355.83
2019-05-09T02:18:41.505Z,99356.38
2019-05-09T02:21:12.279Z,99358.17
2019-05-09T02:23:40.543Z,99358.26
2019-05-09T02:26:09.223Z,99351.00
2019-05-09T02:28:37.868Z,99346.69
2019-05-09T02:31:09.744Z,99354.44
2019-05-09T02:33:38.325Z,99340.21
2019-05-09T02:36:09.640Z,99335.90
2019-05-09T02:38:39.215Z,99336.34
2019-05-09T02:41:08.706Z,99336.75
2019-05-09T02:43:38.856Z,99338.92
2019-05-09T02:46:19.938Z,99327.73
2019-05-09T02:48:49.694Z,99332.08
2019-05-09T02:51:18.877Z,99331.66
2019-05-09T02:53:50.703Z,99337.29
2019-05-09T02:56:19.373Z,99338.14
2019-05-09T02:59:04.801Z,99334.73
2019-05-09T03:01:53.477Z,99326.47
2019-05-09T03:04:22.212Z,99332.44
2019-05-09T03:06:53.885Z,99322.98
2019-05-09T03:09:22.532Z,99322.09
2019-05-09T03:11:51.180Z,99318.64
2019-05-09T03:14:19.830Z,99326.78
2019-05-09T03:16:49.306Z,99317.72
2019-05-09T03:19:19.674Z,99317.69
2019-05-09T03:24:40.562Z,99318.04
2019-05-09T03:27:10.846Z,99320.50
2019-05-09T03:29:41.192Z,99307.48
2019-05-09T03:32:09.842Z,99307.00
2019-05-09T03:34:38.423Z,99310.70
2019-05-09T03:37:09.597Z,99308.00
2019-05-09T03:39:38.237Z,99305.73
2019-05-09T03:42:07.854Z,99306.11
2019-05-09T03:44:38.508Z,99304.27
2019-05-09T03:47:12.639Z,99308.09
2019-05-09T03:49:41.259Z,99313.61
2019-05-09T03:52:12.352Z,99313.91
2019-05-09T03:54:41.000Z,99311.55
2019-05-09T03:57:12.271Z,99310.98
2019-05-09T03:59:40.844Z,99314.22
2019-05-09T04:02:10.309Z,99314.34
2019-05-09T04:04:44.662Z,99316.34
2019-05-09T04:07:13.234Z,99303.99
2019-05-09T04:09:41.773Z,99308.81
2019-05-09T04:12:13.257Z,99308.95
2019-05-09T04:14:41.944Z,99308.84
2019-05-09T04:17:11.857Z,99315.24
2019-05-09T04:19:42.546Z,99308.98
2019-05-09T04:22:11.130Z,99312.63
2019-05-09T04:24:39.802Z,99319.06
2019-05-09T04:27:13.022Z,99316.00
2019-05-09T04:29:41.636Z,99314.59
2019-05-09T04:32:10.347Z,99312.50
2019-05-09T04:34:38.950Z,99308.77
2019-05-09T04:37:08.138Z,99309.05
2019-05-09T04:39:38.705Z,99304.88
2019-05-09T04:42:18.345Z,99305.73
2019-05-09T04:44:49.882Z,99303.34
2019-05-09T04:47:18.340Z,99311.11
2019-05-09T04:49:47.919Z,99301.67
2019-05-09T04:52:18.042Z,99297.92
2019-05-09T04:54:48.680Z,99296.53
2019-05-09T04:57:17.921Z,99297.11
2019-05-09T04:59:49.792Z,99305.25
2019-05-09T05:02:29.364Z,99302.87
2019-05-09T05:05:01.053Z,99296.89
2019-05-09T05:07:29.740Z,99290.21
2019-05-09T05:09:58.313Z,99288.16
2019-05-09T05:12:27.777Z,99283.23
2019-05-09T05:14:59.236Z,99284.06
2019-05-09T05:17:30.776Z,99284.08
2019-05-09T05:20:00.362Z,99288.52
2019-05-09T05:22:30.623Z,99294.05
2019-05-09T05:25:04.243Z,99290.54
2019-05-09T05:27:32.851Z,99287.20
2019-05-09T05:30:02.701Z,99286.88
2019-05-09T05:32:33.371Z,99281.61
2019-05-09T05:35:08.055Z,99280.36
2019-05-09T05:37:38.617Z,99281.73
2019-05-09T05:40:08.789Z,99282.46
2019-05-09T05:42:38.863Z,99287.02
2019-05-09T05:45:11.154Z,99285.62
2019-05-09T05:47:41.489Z,99289.67
2019-05-09T05:50:10.143Z,99279.48
2019-05-09T05:52:42.129Z,99278.77
2019-05-09T05:55:10.919Z,99269.83
2019-05-09T05:57:41.126Z,99268.21
2019-05-09T06:00:11.175Z,99267.58
2019-05-09T06:02:41.469Z,99266.68
2019-05-09T06:05:10.166Z,99259.06
2019-05-09T06:07:38.897Z,99252.12
2019-05-09T06:10:08.236Z,99249.83
2019-05-09T06:12:38.720Z,99242.70
2019-05-09T06:15:07.811Z,99241.09
2019-05-09T06:17:37.960Z,99238.05
2019-05-09T06:20:09.187Z,99235.34
2019-05-09T06:22:42.465Z,99234.94
2019-05-09T06:25:20.160Z,99236.84
2019-05-09T06:27:48.188Z,99228.16
2019-05-09T06:30:21.147Z,99230.16
2019-05-09T06:32:49.962Z,99229.82
2019-05-09T06:35:21.699Z,99230.80
2019-05-09T06:37:52.981Z,99232.19
2019-05-09T06:40:23.434Z,99226.41
2019-05-09T06:42:52.553Z,99224.19
2019-05-09T06:45:41.800Z,99223.98
2019-05-09T06:48:13.349Z,99224.61
2019-05-09T06:50:42.044Z,99219.01
2019-05-09T06:53:10.811Z,99215.91
2019-05-09T06:55:39.604Z,99210.18
2019-05-09T06:58:31.196Z,99213.55
2019-05-09T07:01:14.919Z,99213.38
2019-05-09T07:03:51.254Z,99212.05
2019-05-09T07:06:21.574Z,99206.45
2019-05-09T07:08:54.430Z,99204.59
2019-05-09T07:11:23.087Z,99209.44
2019-05-09T07:13:51.754Z,99209.45
2019-05-09T07:16:23.712Z,99204.60
2019-05-09T07:18:57.760Z,99206.34
2019-05-09T07:21:28.621Z,99206.05
2019-05-09T07:23:58.277Z,99204.37
2019-05-09T07:26:31.346Z,99198.38
2019-05-09T07:29:00.195Z,99197.67
2019-05-09T07:31:33.112Z,99190.36
2019-05-09T07:34:03.476Z,99190.59
2019-05-09T07:36:38.351Z,99187.30
2019-05-09T07:39:08.983Z,99184.73
2019-05-09T07:41:38.366Z,99176.80
2019-05-09T07:44:07.767Z,99169.94
2019-05-09T07:46:38.441Z,99173.64
2019-05-09T07:49:08.611Z,99169.86
2019-05-09T07:51:40.716Z,99173.38
2019-05-09T07:54:21.259Z,99165.14
2019-05-09T07:56:39.932Z,99155.25
2019-05-09T07:59:08.637Z,99158.97
2019-05-09T08:01:39.974Z,99155.41
2019-05-09T08:04:08.602Z,99154.82
2019-05-09T08:06:38.096Z,99151.69
2019-05-09T08:09:08.454Z,99151.93
2019-05-09T08:11:37.765Z,99147.84
2019-05-09T08:14:08.352Z,99139.23
2019-05-09T08:16:37.991Z,99132.89
2019-05-09T08:19:07.540Z,99134.47
2019-05-09T08:21:38.306Z,99134.69
2019-05-09T08:24:08.053Z,99128.64
2019-05-09T08:26:39.265Z,99122.92
2019-05-09T08:29:09.450Z,99118.66
2019-05-09T08:31:40.046Z,99121.77
2019-05-09T08:34:11.193Z,99111.96
2019-05-09T08:36:39.962Z,99108.69
2019-05-09T08:39:09.551Z,99105.77
2019-05-09T08:41:38.638Z,99102.45
2019-05-09T08:44:08.269Z,99102.53
2019-05-09T08:46:37.709Z,99090.69
2019-05-09T08:49:08.237Z,99084.25
2019-05-09T08:51:52.765Z,99097.38
2019-05-09T08:54:12.315Z,99096.13
2019-05-09T08:56:40.982Z,99093.58
2019-05-09T08:59:12.524Z,99082.54
2019-05-09T09:02:12.188Z,99076.18
2019-05-09T09:04:24.498Z,99067.72
2019-05-09T09:06:53.061Z,99070.83
2019-05-09T09:09:21.815Z,99070.02
2019-05-09T09:11:50.562Z,99069.10
2019-05-09T09:14:19.287Z,99061.66
2019-05-09T09:16:48.038Z,99054.05
2019-05-09T09:19:17.917Z,99055.86
2019-05-09T09:21:49.788Z,99058.14
2019-05-09T09:24:18.436Z,99052.55
2019-05-09T09:26:48.775Z,99045.25
2019-05-09T09:29:17.881Z,99042.57
2019-05-09T09:31:48.304Z,99033.78
2019-05-09T09:34:18.150Z,99018.63
2019-05-09T09:36:48.081Z,99028.75
2019-05-09T09:39:18.914Z,99026.61
2019-05-09T09:41:49.505Z,99023.06
2019-05-09T09:44:21.969Z,99015.55
2019-05-09T09:46:52.110Z,99004.14
2019-05-09T09:49:23.738Z,99002.86
2019-05-09T09:51:54.252Z,98997.76
2019-05-09T09:54:28.105Z,98998.92
2019-05-09T09:57:03.427Z,98992.12
2019-05-09T09:59:48.334Z,98987.05
2019-05-09T10:02:27.806Z,98987.22
2019-05-09T10:04:58.784Z,98981.01
2019-05-09T10:07:41.093Z,98978.77
2019-05-09T10:10:48.593Z,98969.17
2019-05-09T10:13:14.046Z,98968.28
2019-05-09T10:15:44.380Z,98964.06
2019-05-09T10:18:30.751Z,98961.61
2019-05-09T10:21:10.108Z,98969.77
2019-05-09T10:23:40.547Z,98964.56
2019-05-09T10:26:10.663Z,98965.47
2019-05-09T10:28:39.764Z,98951.94
2019-05-09T10:31:08.894Z,98945.84
2019-05-09T10:33:37.789Z,98949.37
2019-05-09T10:36:08.465Z,98939.59
2019-05-09T10:38:38.665Z,98948.39
2019-05-09T10:41:10.872Z,98943.48
2019-05-09T10:43:39.741Z,98939.78
2019-05-09T10:46:39.036Z,98932.81
2019-05-09T10:49:00.318Z,98934.34
2019-05-09T10:51:29.161Z,98916.70
2019-05-09T10:53:58.816Z,98909.21
2019-05-09T10:56:28.875Z,98909.33
2019-05-09T10:58:58.497Z,98914.11
2019-05-09T11:01:29.409Z,98915.22
2019-05-09T11:03:58.983Z,98904.95
2019-05-09T11:06:28.811Z,98907.41
2019-05-09T11:08:58.482Z,98903.72
2019-05-09T11:11:29.128Z,98896.91
2019-05-09T11:13:59.018Z,98904.80
2019-05-09T11:16:41.727Z,98894.81
2019-05-09T11:19:02.758Z,98887.34
2019-05-09T11:21:39.185Z,98886.78
2019-05-09T11:24:08.557Z,98883.02
2019-05-09T11:26:39.853Z,98873.63
2019-05-09T11:29:08.228Z,98875.37
2019-05-09T11:31:38.677Z,98865.03
2019-05-09T11:34:09.239Z,98857.24
2019-05-09T11:36:38.319Z,98860.98
2019-05-09T11:39:10.987Z,98859.36
2019-05-09T11:41:48.653Z,98857.73
2019-05-09T11:44:18.428Z,98858.08
2019-05-09T11:46:47.700Z,98853.07
2019-05-09T11:49:17.927Z,98855.92
2019-05-09T11:51:48.245Z,98853.00
2019-05-09T11:54:19.914Z,98853.25
2019-05-09T11:56:48.646Z,98852.22
2019-05-09T11:59:18.896Z,98847.29
2019-05-09T12:01:48.366Z,98841.61
2019-05-09T12:04:18.776Z,98846.31
2019-05-09T12:06:50.285Z,98847.59
2019-05-09T12:09:23.858Z,98840.98
2019-05-09T12:11:52.691Z,98847.98
2019-05-09T12:14:21.371Z,98843.64
2019-05-09T12:16:50.023Z,98838.87
2019-05-09T12:19:18.753Z,98835.58
2019-05-09T12:21:48.444Z,98836.20
2019-05-09T12:24:18.342Z,98836.28
2019-05-09T12:26:48.180Z,98837.98
2019-05-09T12:29:19.580Z,98831.48
2019-05-09T12:31:48.576Z,98824.66
2019-05-09T12:34:19.387Z,98820.86
2019-05-09T12:36:49.416Z,98818.21
2019-05-09T12:39:20.089Z,98817.56
2019-05-09T12:41:49.194Z,98812.00
2019-05-09T12:44:18.411Z,98808.72
2019-05-09T12:46:49.886Z,98808.05
2019-05-09T12:49:19.147Z,98812.73
2019-05-09T12:51:47.915Z,98803.80
2019-05-09T12:54:19.324Z,98804.80
2019-05-09T12:56:48.689Z,98811.70
2019-05-09T12:59:18.748Z,98812.54
2019-05-09T13:01:50.909Z,98807.53
2019-05-09T13:04:19.661Z,98811.23
2019-05-09T13:06:50.966Z,98807.61
2019-05-09T13:09:19.663Z,98809.02
2019-05-09T13:11:48.480Z,98812.50
2019-05-09T13:14:19.252Z,98812.47
2019-05-09T13:16:53.368Z,98807.94
2019-05-09T13:19:27.923Z,98799.61
2019-05-09T13:21:58.643Z,98802.94
2019-05-09T13:24:28.318Z,98798.41
2019-05-09T13:26:57.153Z,98801.47
2019-05-09T13:29:25.771Z,98806.52
2019-05-09T13:31:54.371Z,98803.39
2019-05-09T13:34:23.008Z,98796.53
2019-05-09T13:36:51.589Z,98790.94
2019-05-09T13:39:20.233Z,98795.66
2019-05-09T13:41:48.849Z,98786.89
2019-05-09T13:44:18.059Z,98788.20
2019-05-09T13:46:48.872Z,98786.77
2019-05-09T13:49:19.283Z,98790.63
2019-05-09T13:52:00.265Z,98791.00
2019-05-09T13:54:20.982Z,98788.50
2019-05-09T13:56:56.734Z,98788.13
2019-05-09T13:59:19.862Z,98782.11
2019-05-09T14:01:48.503Z,98783.94
2019-05-09T14:04:17.141Z,98783.19
2019-05-09T14:06:45.714Z,98775.82
2019-05-09T14:09:14.326Z,98776.06
2019-05-09T14:11:42.895Z,98768.46
2019-05-09T14:14:12.286Z,98768.22
2019-05-09T14:16:42.429Z,98771.70
2019-05-09T14:19:30.185Z,98772.44
2019-05-09T14:21:41.506Z,98765.59
2019-05-09T14:24:15.012Z,98764.39
2019-05-09T14:26:40.496Z,98761.85
2019-05-09T14:29:12.742Z,98765.20
2019-05-09T14:31:39.508Z,98758.95
2019-05-09T14:34:08.806Z,98751.85
2019-05-09T14:36:39.198Z,98746.83
2019-05-09T14:39:09.392Z,98744.50
2019-05-09T14:41:39.063Z,98743.55
2019-05-09T14:44:09.316Z,98744.43
2019-05-09T14:46:39.141Z,98733.58
2019-05-09T14:49:08.238Z,98730.45
2019-05-09T14:51:38.123Z,98735.87
2019-05-09T14:54:09.855Z,98740.19
2019-05-09T14:56:41.803Z,98739.24
2019-05-09T14:59:09.766Z,98730.67
2019-05-09T15:01:43.066Z,98731.61
2019-05-09T15:04:09.220Z,98740.75
2019-05-09T15:06:37.757Z,98725.78
2019-05-09T15:09:08.382Z,98722.55
2019-05-09T15:11:40.219Z,98719.28
2019-05-09T15:14:08.936Z,98723.39
2019-05-09T15:16:39.208Z,98720.63
2019-05-09T15:19:08.511Z,98714.22
2019-05-09T15:21:38.174Z,98714.72
2019-05-09T15:24:09.153Z,98704.14
2019-05-09T15:26:37.706Z,98697.15
2019-05-09T15:29:08.059Z,98694.48
2019-05-09T15:31:39.226Z,98692.31
2019-05-09T15:34:10.591Z,98679.03
2019-05-09T15:36:39.164Z,98677.70
2019-05-09T15:39:08.695Z,98669.78
2019-05-09T15:41:38.421Z,98672.80
2019-05-09T15:44:08.261Z,98671.30
2019-05-09T15:46:44.539Z,98664.10
2019-05-09T15:49:18.205Z,98661.48
2019-05-09T15:51:47.854Z,98657.42
2019-05-09T15:54:17.844Z,98661.38
2019-05-09T15:56:48.387Z,98665.80
2019-05-09T15:59:19.876Z,98674.03
2019-05-09T16:01:49.350Z,98674.66
2019-05-09T16:04:20.789Z,98670.48
2019-05-09T16:06:52.489Z,98669.64
2019-05-09T16:09:21.508Z,98666.30
2019-05-09T16:11:50.186Z,98667.48
2019-05-09T16:14:21.529Z,98659.30
2019-05-09T16:16:50.164Z,98660.82
2019-05-09T16:19:18.678Z,98653.11
2019-05-09T16:21:50.161Z,98651.62
2019-05-09T16:24:19.133Z,98653.91
2019-05-09T16:26:50.968Z,98647.38
2019-05-09T16:29:19.618Z,98642.95
2019-05-09T16:31:48.461Z,98639.91
2019-05-09T16:34:17.816Z,98641.14
2019-05-09T16:36:47.990Z,98645.33
2019-05-09T16:39:18.250Z,98644.28
2019-05-09T16:41:48.377Z,98636.91
2019-05-09T16:44:18.236Z,98632.75
2019-05-09T16:46:48.484Z,98634.07
2019-05-09T16:49:19.705Z,98630.54
2019-05-09T16:51:48.597Z,98623.80
2019-05-09T16:54:18.165Z,98630.75
2019-05-09T16:56:47.053Z,98634.92
2019-05-09T16:59:17.901Z,98631.30
2019-05-09T17:01:49.473Z,98633.66
2019-05-09T17:04:19.167Z,98631.98
2019-05-09T17:06:49.496Z,98636.51
2019-05-09T17:09:18.127Z,98636.51
2019-05-09T17:11:49.751Z,98642.28
2019-05-09T17:14:21.095Z,98649.29
2019-05-09T17:16:52.796Z,98641.42
2019-05-09T17:19:23.117Z,98641.42
2019-05-09T17:21:53.391Z,98651.00
2019-05-09T17:24:23.253Z,98647.59
2019-05-09T17:26:51.895Z,98651.48
2019-05-09T17:29:20.566Z,98652.72
2019-05-09T17:31:49.221Z,98654.51
2019-05-09T17:34:18.188Z,98659.61
2019-05-09T17:36:46.929Z,98662.18
2019-05-09T17:39:15.571Z,98666.78
2019-05-09T17:41:44.224Z,98650.45
2019-05-09T17:44:12.869Z,98649.95
2019-05-09T17:46:44.717Z,98652.22
2019-05-09T17:49:13.483Z,98654.19
2019-05-09T17:51:42.001Z,98660.88
2019-05-09T17:54:10.667Z,98665.73
2019-05-09T17:56:39.240Z,98658.38
2019-05-09T17:59:08.491Z,98658.19
2019-05-09T18:01:37.374Z,98668.52
2019-05-09T18:04:08.382Z,98661.00
2019-05-09T18:06:37.922Z,98664.71
2019-05-09T18:09:08.574Z,98656.34
2019-05-09T18:11:37.842Z,98653.21
2019-05-09T18:14:09.565Z,98661.53
2019-05-09T18:16:38.947Z,98664.80
2019-05-09T18:19:08.581Z,98660.13
2019-05-09T18:21:50.291Z,98660.02
2019-05-09T18:24:09.034Z,98658.22
2019-05-09T18:26:40.291Z,98664.89
2019-05-09T18:29:08.882Z,98664.41
2019-05-09T18:31:45.237Z,98668.85
2019-05-09T18:34:19.965Z,98667.88
2019-05-09T18:36:48.647Z,98657.48
2019-05-09T18:39:18.614Z,98658.66
2019-05-09T18:41:48.377Z,98659.97
2019-05-09T18:44:19.629Z,98670.55
2019-05-09T18:46:48.345Z,98667.98
2019-05-09T18:49:16.985Z,98677.25
2019-05-09T18:51:45.677Z,98676.06
2019-05-09T18:54:14.315Z,98678.03
2019-05-09T18:56:42.828Z,98676.17
2019-05-09T18:59:11.404Z,98676.17
2019-05-09T19:01:40.065Z,98673.61
2019-05-09T19:04:11.159Z,98680.30
2019-05-09T19:06:40.069Z,98682.94
2019-05-09T19:09:08.779Z,98683.48
2019-05-09T19:11:37.515Z,98680.30
2019-05-09T19:14:07.350Z,98680.48
2019-05-09T19:16:40.588Z,98676.13
2019-05-09T19:19:19.939Z,98676.23
2019-05-09T19:21:50.223Z,98672.95
2019-05-09T19:24:18.815Z,98668.52
2019-05-09T19:26:47.467Z,98671.17
2019-05-09T19:29:16.045Z,98671.27
2019-05-09T19:31:44.697Z,98664.11
2019-05-09T19:34:16.267Z,98654.61
2019-05-09T19:36:44.921Z,98652.75
2019-05-09T19:39:13.593Z,98657.99
2019-05-09T19:41:45.082Z,98659.11
2019-05-09T19:44:13.736Z,98665.53
2019-05-09T19:46:42.399Z,98660.28
2019-05-09T19:49:11.091Z,98656.71
2019-05-09T19:51:42.574Z,98654.28
2019-05-09T19:54:11.197Z,98654.13
2019-05-09T19:56:39.844Z,98655.99
2019-05-09T19:59:08.718Z,98655.22
2019-05-09T20:01:37.463Z,98653.23
2019-05-09T20:04:06.110Z,98655.76
2019-05-09T20:06:34.688Z,98656.91
2019-05-09T20:09:05.025Z,98660.47
2019-05-09T20:11:35.302Z,98651.80
2019-05-09T20:14:05.522Z,98655.12
2019-05-09T20:16:38.821Z,98646.01
2019-05-09T20:19:07.471Z,98644.84
2019-05-09T20:21:36.160Z,98647.34
2019-05-09T20:24:05.204Z,98643.41
2019-05-09T20:26:33.881Z,98649.47
2019-05-09T20:29:05.239Z,98654.59
2019-05-09T20:31:33.948Z,98651.89
2019-05-09T20:34:02.674Z,98653.58
2019-05-09T20:36:31.366Z,98653.78
2019-05-09T20:39:00.202Z,98657.48
2019-05-09T20:41:29.039Z,98658.07
2019-05-09T20:43:57.877Z,98658.97
2019-05-09T20:46:26.727Z,98655.74
2019-05-09T20:48:55.559Z,98653.41
2019-05-09T20:51:24.390Z,98659.44
2019-05-09T20:53:53.224Z,98661.94
2019-05-09T20:56:22.059Z,98655.92
2019-05-09T20:58:50.829Z,98651.41
2019-05-09T21:01:19.653Z,98648.02
2019-05-09T21:03:59.437Z,98659.19
2019-05-09T21:06:18.953Z,98662.28
2019-05-09T21:08:50.509Z,98655.12
2019-05-09T21:11:19.311Z,98663.70
2019-05-09T21:13:48.951Z,98665.59
2019-05-09T21:16:17.902Z,98665.22
2019-05-09T21:18:49.264Z,98663.03
2019-05-09T21:21:18.140Z,98673.94
2019-05-09T21:23:46.899Z,98675.52
2019-05-09T21:26:15.676Z,98680.16
2019-05-09T21:28:44.562Z,98677.49
2019-05-09T21:31:13.322Z,98674.56
2019-05-09T21:33:42.194Z,98668.13
2019-05-09T21:36:10.848Z,98668.02
2019-05-09T21:38:39.559Z,98671.17
2019-05-09T21:41:08.217Z,98676.84
2019-05-09T21:43:36.859Z,98681.44
2019-05-09T21:46:05.559Z,98675.61
2019-05-09T21:48:34.202Z,98679.86
2019-05-09T21:51:02.883Z,98685.27
2019-05-09T21:53:40.593Z,98682.49
2019-05-09T21:56:01.753Z,98689.92
2019-05-09T21:58:30.406Z,98692.70
2019-05-09T22:01:00.454Z,98692.14
2019-05-09T22:03:29.144Z,98691.61
2019-05-09T22:05:57.801Z,98697.39
2019-05-09T22:08:26.485Z,98693.92
2019-05-09T22:10:55.133Z,98691.23
2019-05-09T22:13:23.786Z,98693.45
2019-05-09T22:15:53.861Z,98702.78
2019-05-09T22:18:22.443Z,98699.41
2019-05-09T22:20:51.023Z,98702.44
2019-05-09T22:23:19.646Z,98704.83
2019-05-09T22:25:48.224Z,98698.81
2019-05-09T22:28:16.872Z,98699.59
2019-05-09T22:30:45.396Z,98695.88
2019-05-09T22:33:14.969Z,98697.51
2019-05-09T22:35:43.572Z,98694.17
2019-05-09T22:38:12.223Z,98684.31
2019-05-09T22:40:44.994Z,98685.09
2019-05-09T22:43:13.654Z,98680.00
2019-05-09T22:45:42.408Z,98680.59
2019-05-09T22:48:12.304Z,98670.67
2019-05-09T22:50:40.940Z,98668.52
2019-05-09T22:53:09.596Z,98667.05
2019-05-09T22:55:39.548Z,98664.99
2019-05-09T22:58:08.203Z,98668.61
2019-05-09T23:00:36.842Z,98663.67
2019-05-09T23:03:05.529Z,98657.05
2019-05-09T23:05:34.184Z,98655.73
2019-05-09T23:08:02.818Z,98656.81
2019-05-09T23:10:31.497Z,98654.82
2019-05-09T23:13:00.082Z,98657.35
2019-05-09T23:15:28.692Z,98653.58
2019-05-09T23:17:58.575Z,98648.09
2019-05-09T23:20:47.164Z,98647.40
2019-05-09T23:23:23.203Z,98643.34
2019-05-09T23:25:51.861Z,98649.57
2019-05-09T23:28:22.819Z,98648.80
2019-05-09T23:30:53.109Z,98643.09
2019-05-09T23:33:22.459Z,98646.41
2019-05-09T23:35:51.072Z,98642.94
2019-05-09T23:38:19.642Z,98639.79
2019-05-09T23:40:48.259Z,98632.71
2019-05-09T23:43:16.839Z,98637.70
2019-05-09T23:45:46.894Z,98637.26
2019-05-09T23:48:15.512Z,98638.00
2019-05-09T23:50:44.080Z,98640.88
2019-05-09T23:53:12.968Z,98642.55
2019-05-09T23:56:00.611Z,98648.95
2019-05-09T23:58:46.905Z,98648.73
